Time;durP1;ratioP1;P1;durP2;ratioP2;P2;SDS_P1;SDS_P2;PMS_P1;PMS_P2;Temp;Humidity;BMP_temperature;BMP_pressure;BME280_temperature;BME280_humidity;BME280_pressure;Samples;Min_cycle;Max_cycle;Signal;HPM_P1;HPM_P2
2022/06/21 00:01:24;;;;;;;22.02;15.30;;;7.80;99.90;;;;;;5021149;28;20045;-74
2022/06/21 00:03:52;;;;;;;15.18;13.57;;;7.70;99.90;;;;;;5006432;28;20107;-74
2022/06/21 00:06:22;;;;;;;16.35;13.85;;;7.50;99.90;;;;;;5023557;28;20472;-74
2022/06/21 00:08:49;;;;;;;18.42;13.45;;;7.40;99.90;;;;;;5023484;28;20073;-75
2022/06/21 00:11:27;;;;;;;16.50;13.73;;;7.40;99.90;;;;;;5005992;28;20136;-74
2022/06/21 00:13:54;;;;;;;14.18;12.80;;;7.40;99.90;;;;;;5007948;28;20589;-74
2022/06/21 00:16:24;;;;;;;12.93;11.75;;;7.40;99.90;;;;;;5022378;28;20528;-74
2022/06/21 00:18:52;;;;;;;15.18;13.63;;;7.40;99.90;;;;;;5044079;28;20194;-74
2022/06/21 00:21:25;;;;;;;17.83;13.40;;;7.60;99.90;;;;;;5023868;28;20411;-74
2022/06/21 00:23:54;;;;;;;16.92;12.93;;;7.60;99.90;;;;;;5016761;28;20098;-77
2022/06/21 00:26:22;;;;;;;17.20;12.57;;;7.60;99.90;;;;;;5012350;28;20167;-77
2022/06/21 00:28:49;;;;;;;17.33;12.88;;;7.60;99.90;;;;;;5013036;28;20103;-74
2022/06/21 00:31:29;;;;;;;19.75;13.18;;;7.60;99.90;;;;;;5043076;28;20057;-74
2022/06/21 00:33:58;;;;;;;15.45;13.85;;;7.50;99.90;;;;;;5024283;28;20080;-74
2022/06/21 00:36:32;;;;;;;17.70;12.80;;;7.50;99.90;;;;;;5024598;28;20052;-74
2022/06/21 00:39:01;;;;;;;20.50;14.02;;;7.60;99.90;;;;;;5022088;28;20045;-74
2022/06/21 00:41:42;;;;;;;18.38;12.80;;;7.70;99.90;;;;;;5023206;28;20045;-73
2022/06/21 00:44:17;;;;;;;16.83;12.18;;;7.80;99.90;;;;;;5014327;28;20049;-74
2022/06/21 00:46:43;;;;;;;;;;;7.70;99.90;;;;;;5024452;28;20502;-74
2022/06/21 00:49:28;;;;;;;14.95;11.60;;;7.60;99.90;;;;;;5024369;28;19925;-75
2022/06/21 00:52:10;;;;;;;14.73;12.20;;;7.50;99.90;;;;;;5026888;28;20073;-75
2022/06/21 00:54:49;;;;;;;14.60;13.23;;;7.50;99.90;;;;;;4995152;28;20323;-74
2022/06/21 00:57:20;;;;;;;14.05;12.65;;;7.40;99.90;;;;;;5013302;28;20307;-75
2022/06/21 00:59:49;;;;;;;14.48;12.73;;;7.40;99.90;;;;;;5016625;28;20120;-76
2022/06/21 01:02:35;;;;;;;14.82;13.32;;;7.50;99.90;;;;;;5023693;28;20045;-75
2022/06/21 01:05:03;;;;;;;15.15;13.48;;;7.50;99.90;;;;;;5009042;28;20046;-75
2022/06/21 01:07:32;;;;;;;16.30;14.20;;;7.50;99.90;;;;;;5013918;28;20075;-75
2022/06/21 01:10:07;;;;;;;20.75;15.32;;;7.50;99.90;;;;;;5043169;28;20049;-75
2022/06/21 01:12:40;;;;;;;;;;;7.60;99.90;;;;;;5027224;28;20653;-75
2022/06/21 01:15:12;;;;;;;16.40;13.38;;;7.50;99.90;;;;;;5008995;28;20539;-75
2022/06/21 01:17:39;;;;;;;15.63;14.00;;;7.40;99.90;;;;;;5017743;28;20053;-75
2022/06/21 01:20:20;;;;;;;19.88;14.20;;;7.20;99.90;;;;;;5009123;28;20107;-75
2022/06/21 01:23:02;;;;;;;17.80;13.98;;;7.10;99.90;;;;;;5034807;28;20571;-75
2022/06/21 01:26:07;;;;;;;15.27;13.70;;;7.10;99.90;;;;;;5030641;28;20183;-75
2022/06/21 01:28:35;;;;;;;14.77;13.13;;;7.00;99.90;;;;;;5002688;28;20041;-75
2022/06/21 01:31:02;;;;;;;15.80;14.20;;;7.00;99.90;;;;;;5010453;28;20108;-75
2022/06/21 01:33:38;;;;;;;18.00;15.48;;;7.00;99.90;;;;;;5008656;28;20065;-74
2022/06/21 01:36:19;;;;;;;18.20;14.75;;;7.10;99.90;;;;;;5026682;28;20114;-74
2022/06/21 01:39:03;;;;;;;19.95;15.05;;;7.00;99.90;;;;;;4993766;28;20060;-75
2022/06/21 01:41:35;;;;;;;17.27;15.48;;;7.00;99.90;;;;;;5018852;28;20604;-74
2022/06/21 01:44:06;;;;;;;21.63;16.50;;;7.00;99.90;;;;;;5013065;28;20080;-75
2022/06/21 01:46:33;;;;;;;18.30;15.52;;;7.10;99.90;;;;;;5016047;28;20045;-75
2022/06/21 01:49:07;;;;;;;23.38;17.05;;;7.20;99.90;;;;;;5043578;28;20044;-75
2022/06/21 01:51:40;;;;;;;27.88;17.58;;;7.00;99.90;;;;;;5022639;28;20103;-75
2022/06/21 01:54:13;;;;;;;21.73;16.63;;;7.10;99.90;;;;;;5017021;28;20045;-75
2022/06/21 01:56:41;;;;;;;18.50;16.10;;;7.00;99.90;;;;;;5026188;28;20049;-76
2022/06/21 01:59:14;;;;;;;18.48;16.10;;;7.00;99.90;;;;;;5025639;28;20122;-75
2022/06/21 02:01:56;;;;;;;21.58;16.25;;;6.90;99.90;;;;;;5006850;28;20073;-75
2022/06/21 02:04:27;;;;;;;20.38;17.25;;;6.90;99.90;;;;;;5042374;28;20094;-75
2022/06/21 02:06:58;;;;;;;20.33;17.20;;;7.00;99.90;;;;;;5043702;28;20045;-75
2022/06/21 02:09:34;;;;;;;20.92;16.55;;;6.90;99.90;;;;;;5008415;28;20145;-75
2022/06/21 02:12:07;;;;;;;18.17;16.30;;;6.70;99.90;;;;;;5018096;28;20049;-75
2022/06/21 02:14:38;;;;;;;20.67;16.40;;;6.70;99.90;;;;;;5012111;28;20056;-75
2022/06/21 02:17:22;;;;;;;18.50;16.67;;;6.70;99.90;;;;;;5024224;28;20069;-75
2022/06/21 02:19:55;;;;;;;20.33;16.52;;;6.60;99.90;;;;;;5011423;28;20461;-75
2022/06/21 02:22:25;;;;;;;25.77;17.33;;;6.60;99.90;;;;;;5016768;28;20087;-75
2022/06/21 02:24:54;;;;;;;18.55;16.80;;;6.50;99.90;;;;;;5005694;28;20060;-75
2022/06/21 02:27:25;;;;;;;18.65;16.65;;;6.50;99.90;;;;;;4997833;28;20380;-76
2022/06/21 02:29:56;;;;;;;21.40;17.70;;;6.50;99.90;;;;;;5022111;28;20422;-75
2022/06/21 02:32:29;;;;;;;19.83;16.67;;;6.40;99.90;;;;;;5009036;28;20584;-75
2022/06/21 02:35:11;;;;;;;22.23;16.65;;;6.50;99.90;;;;;;5024440;28;20060;-76
2022/06/21 02:37:39;;;;;;;24.80;17.92;;;6.40;99.90;;;;;;5023353;28;20146;-77
2022/06/21 02:40:10;;;;;;;20.35;15.82;;;6.40;99.90;;;;;;5006665;28;20045;-77
2022/06/21 02:42:40;;;;;;;25.98;16.88;;;6.50;99.90;;;;;;5022616;28;20139;-77
2022/06/21 02:45:38;;;;;;;21.08;15.95;;;6.50;99.90;;;;;;5006277;28;20115;-77
2022/06/21 02:48:12;;;;;;;16.40;14.52;;;6.40;99.90;;;;;;5003931;28;20053;-74
2022/06/21 02:50:48;;;;;;;21.80;15.32;;;6.30;99.90;;;;;;5005270;28;20049;-75
2022/06/21 02:53:25;;;;;;;20.75;15.65;;;6.30;99.90;;;;;;5019655;28;20055;-75
2022/06/21 02:56:08;;;;;;;17.65;15.73;;;6.20;99.90;;;;;;5040495;28;20049;-75
2022/06/21 02:58:39;;;;;;;15.93;14.30;;;6.30;99.90;;;;;;5012904;28;20110;-74
2022/06/21 03:01:20;;;;;;;16.73;14.93;;;6.30;99.90;;;;;;5014933;28;20076;-74
2022/06/21 03:03:48;;;;;;;19.20;15.68;;;6.30;99.90;;;;;;5005200;28;20049;-75
2022/06/21 03:06:18;;;;;;;19.05;15.80;;;6.30;99.90;;;;;;5030417;28;20462;-77
2022/06/21 03:08:56;;;;;;;18.95;15.57;;;6.20;99.90;;;;;;5024768;28;20139;-77
2022/06/21 03:11:28;;;;;;;19.10;14.90;;;6.10;99.90;;;;;;5041163;28;20407;-76
2022/06/21 03:13:56;;;;;;;17.00;13.45;;;6.10;99.90;;;;;;4997383;28;20371;-77
2022/06/21 03:16:23;;;;;;;21.65;14.05;;;6.00;99.90;;;;;;5021949;28;20076;-77
2022/06/21 03:18:52;;;;;;;25.58;16.10;;;6.00;99.90;;;;;;5033319;28;20339;-77
2022/06/21 03:21:31;;;;;;;28.33;15.57;;;6.10;99.90;;;;;;5021190;28;20049;-78
2022/06/21 03:24:01;;;;;;;23.55;14.35;;;6.10;99.90;;;;;;5038277;28;20048;-75
2022/06/21 03:26:29;;;;;;;26.42;15.70;;;6.10;99.90;;;;;;5022511;28;20102;-76
2022/06/21 03:28:57;;;;;;;22.13;15.65;;;6.20;99.90;;;;;;5030171;28;20075;-75
2022/06/21 03:31:35;;;;;;;18.98;14.38;;;6.20;99.90;;;;;;5027047;28;20068;-75
2022/06/21 03:34:10;;;;;;;19.38;14.80;;;6.20;99.90;;;;;;5012278;28;20048;-75
2022/06/21 03:36:37;;;;;;;;;;;6.10;99.90;;;;;;5008955;28;20049;-75
2022/06/21 03:39:10;;;;;;;15.65;14.05;;;6.00;99.90;;;;;;5009033;28;19932;-75
2022/06/21 03:41:43;;;;;;;19.90;14.73;;;6.00;99.90;;;;;;5007770;28;20053;-75
2022/06/21 03:44:15;;;;;;;25.85;14.05;;;6.20;99.90;;;;;;5014676;28;20056;-75
2022/06/21 03:46:51;;;;;;;17.90;15.90;;;6.10;99.90;;;;;;5023210;28;20472;-75
2022/06/21 03:49:30;;;;;;;18.20;14.98;;;6.10;99.90;;;;;;5022181;28;20044;-75
2022/06/21 03:51:59;;;;;;;24.80;16.15;;;6.00;99.90;;;;;;5021773;28;20045;-75
2022/06/21 03:54:47;;;;;;;18.75;16.10;;;6.00;99.90;;;;;;5013952;28;20136;-75
2022/06/21 03:57:22;;;;;;;17.92;15.35;;;6.00;99.90;;;;;;5003858;28;20041;-75
2022/06/21 04:00:02;;;;;;;;;;;6.00;99.90;;;;;;5026539;28;20561;-75
2022/06/21 04:02:44;;;;;;;21.40;15.90;;;6.10;99.90;;;;;;5021507;28;19968;-75
2022/06/21 04:05:20;;;;;;;20.73;16.05;;;6.00;99.90;;;;;;4987686;28;20041;-75
2022/06/21 04:08:14;;;;;;;23.60;17.05;;;6.20;99.90;;;;;;5004414;28;20053;-74
2022/06/21 04:10:55;;;;;;;19.35;16.67;;;6.20;99.90;;;;;;5015906;28;20037;-75
2022/06/21 04:13:41;;;;;;;18.48;16.33;;;6.30;99.90;;;;;;5023084;28;20267;-75
2022/06/21 04:16:32;;;;;;;21.77;17.17;;;6.40;99.90;;;;;;5005772;28;20406;-77
2022/06/21 04:19:09;;;;;;;19.63;16.00;;;6.50;99.90;;;;;;5003673;28;20053;-77
2022/06/21 04:22:00;;;;;;;23.52;17.27;;;6.70;99.90;;;;;;5017857;28;20658;-77
2022/06/21 04:24:37;;;;;;;21.50;15.65;;;6.70;99.90;;;;;;4992900;28;20055;-77
2022/06/21 04:27:15;;;;;;;23.70;15.85;;;6.80;99.90;;;;;;5007771;28;20599;-77
2022/06/21 04:30:11;;;;;;;23.45;16.10;;;6.80;99.90;;;;;;5019625;28;20041;-77
2022/06/21 04:32:46;;;;;;;22.63;16.10;;;6.70;99.90;;;;;;5009476;28;20653;-77
2022/06/21 04:35:16;;;;;;;;;;;6.70;99.90;;;;;;4991301;28;20475;-77
2022/06/21 04:37:53;;;;;;;22.33;14.27;;;6.90;99.90;;;;;;5025676;28;19983;-78
2022/06/21 04:40:32;;;;;;;21.60;15.60;;;7.10;99.90;;;;;;5039331;28;20041;-75
2022/06/21 04:43:01;;;;;;;20.75;16.00;;;7.40;99.90;;;;;;4991737;28;20046;-75
2022/06/21 04:45:32;;;;;;;23.70;17.67;;;7.50;99.90;;;;;;5006844;28;20045;-76
2022/06/21 04:48:17;;;;;;;21.08;14.23;;;7.60;99.90;;;;;;4996563;28;20103;-76
2022/06/21 04:50:50;;;;;;;18.52;14.88;;;7.60;99.90;;;;;;5025473;28;20088;-76
2022/06/21 04:53:26;;;;;;;16.63;13.52;;;7.60;99.90;;;;;;5013487;28;20041;-75
2022/06/21 04:56:08;;;;;;;15.82;14.07;;;7.70;99.90;;;;;;5028500;28;20041;-75
2022/06/21 04:58:36;;;;;;;15.15;13.63;;;7.90;99.90;;;;;;5013805;28;20057;-74
2022/06/21 05:01:29;;;;;;;17.25;15.32;;;8.00;99.90;;;;;;5008502;28;20699;-75
2022/06/21 05:03:53;;;;;;;16.55;15.05;;;8.00;99.90;;;;;;5037505;28;20045;-75
2022/06/21 05:06:21;;;;;;;23.70;16.23;;;8.10;99.90;;;;;;5026059;28;20056;-75
2022/06/21 05:08:48;;;;;;;17.25;15.65;;;8.20;99.90;;;;;;5043488;28;20130;-75
2022/06/21 05:11:15;;;;;;;19.98;18.02;;;8.50;99.90;;;;;;5023336;28;21192;-75
2022/06/21 05:13:49;;;;;;;18.83;16.98;;;8.70;99.90;;;;;;5019274;28;20056;-75
2022/06/21 05:16:24;;;;;;;19.75;17.92;;;8.80;99.90;;;;;;5025415;28;20403;-75
2022/06/21 05:18:54;;;;;;;19.65;17.73;;;8.90;99.90;;;;;;5016969;28;20052;-75
2022/06/21 05:21:30;;;;;;;19.90;17.90;;;9.10;99.90;;;;;;5009423;28;20136;-74
2022/06/21 05:23:59;;;;;;;19.73;18.05;;;9.20;99.90;;;;;;5013374;28;20081;-74
2022/06/21 05:26:43;;;;;;;20.27;18.33;;;9.40;99.90;;;;;;5024669;28;20124;-75
2022/06/21 05:29:36;;;;;;;20.30;18.50;;;9.50;99.90;;;;;;5038288;28;20045;-75
2022/06/21 05:32:08;;;;;;;20.92;19.33;;;9.90;99.90;;;;;;5019719;28;20506;-75
2022/06/21 05:34:42;;;;;;;23.02;21.00;;;10.40;99.90;;;;;;4995322;28;20074;-75
2022/06/21 05:37:36;;;;;;;23.70;22.00;;;10.90;99.90;;;;;;5025602;28;20418;-75
2022/06/21 05:40:19;;;;;;;25.27;23.27;;;11.50;99.90;;;;;;5032304;28;20049;-75
2022/06/21 05:42:46;;;;;;;24.63;22.73;;;12.10;99.90;;;;;;5028983;28;20265;-76
2022/06/21 05:45:15;;;;;;;24.75;22.75;;;12.50;99.90;;;;;;5020721;28;20050;-75
2022/06/21 05:47:47;;;;;;;25.38;23.45;;;12.70;99.90;;;;;;5024668;28;20080;-75
2022/06/21 05:50:18;;;;;;;26.67;24.42;;;13.10;99.90;;;;;;5024424;28;20053;-75
2022/06/21 05:52:48;;;;;;;26.95;24.70;;;13.40;99.90;;;;;;5023247;28;20478;-75
2022/06/21 05:55:23;;;;;;;27.17;24.88;;;13.80;99.90;;;;;;5005768;28;20065;-75
2022/06/21 05:58:01;;;;;;;27.02;25.08;;;14.30;99.90;;;;;;5007448;28;20126;-77
2022/06/21 06:00:35;;;;;;;26.48;24.23;;;14.50;99.90;;;;;;5006171;28;20072;-76
2022/06/21 06:03:11;;;;;;;27.83;25.63;;;14.70;99.90;;;;;;4994477;28;20483;-75
2022/06/21 06:05:38;;;;;;;27.63;25.33;;;14.90;99.90;;;;;;5005815;28;20072;-75
2022/06/21 06:08:13;;;;;;;27.42;25.33;;;15.10;99.90;;;;;;5024022;28;20099;-76
2022/06/21 06:10:43;;;;;;;27.88;25.60;;;15.20;99.90;;;;;;5006265;28;20127;-76
2022/06/21 06:13:16;;;;;;;27.83;25.67;;;15.60;99.90;;;;;;5006119;28;20091;-75
2022/06/21 06:15:50;;;;;;;28.02;25.42;;;15.90;99.90;;;;;;5023818;28;20038;-76
2022/06/21 06:18:35;;;;;;;28.65;26.45;;;16.20;99.90;;;;;;5031696;28;20052;-76
2022/06/21 06:21:21;;;;;;;;;;;15.80;99.90;;;;;;5037155;28;20191;-75
2022/06/21 06:24:01;;;;;;;;;;;15.30;99.90;;;;;;5008265;28;20278;-75
2022/06/21 06:26:32;;;;;;;25.90;23.88;;;14.90;99.90;;;;;;5024807;28;19920;-77
2022/06/21 06:29:19;;;;;;;27.55;25.25;;;15.00;99.90;;;;;;5014636;28;20187;-76
2022/06/21 06:32:04;;;;;;;26.95;24.88;;;15.50;99.90;;;;;;5006158;28;20037;-76
2022/06/21 06:34:42;;;;;;;28.52;25.77;;;16.20;99.90;;;;;;5006397;28;20099;-76
2022/06/21 06:37:30;;;;;;;27.67;25.60;;;16.60;99.90;;;;;;5005922;28;20430;-76
2022/06/21 06:39:58;;;;;;;27.65;25.70;;;16.80;99.90;;;;;;5005881;28;20515;-77
2022/06/21 06:42:31;;;;;;;26.98;24.65;;;17.00;99.90;;;;;;5030272;28;20155;-76
2022/06/21 06:45:03;;;;;;;27.15;25.13;;;17.10;99.90;;;;;;5048231;28;20459;-75
2022/06/21 06:47:46;;;;;;;26.33;24.02;;;17.00;99.90;;;;;;5030541;28;20041;-76
2022/06/21 06:50:27;;;;;;;27.10;24.85;;;16.60;99.90;;;;;;5050729;28;20049;-76
2022/06/21 06:53:06;;;;;;;26.52;24.30;;;16.60;99.90;;;;;;5039572;28;20048;-76
2022/06/21 06:55:36;;;;;;;27.65;25.40;;;16.60;99.90;;;;;;5046503;22;20045;-76
2022/06/21 06:58:31;;;;;;;26.65;24.05;;;16.70;99.90;;;;;;5013103;28;20640;-76
2022/06/21 07:01:03;;;;;;;26.52;24.42;;;17.20;99.90;;;;;;5027047;28;20096;-76
2022/06/21 07:03:52;;;;;;;26.20;24.00;;;17.40;99.90;;;;;;5011566;28;20088;-76
2022/06/21 07:06:45;;;;;;;25.13;23.40;;;17.20;99.90;;;;;;5026959;28;20456;-76
2022/06/21 07:09:32;;;;;;;26.38;23.95;;;17.50;99.90;;;;;;5011979;28;20582;-76
2022/06/21 07:12:27;;;;;;;26.02;24.23;;;17.40;99.90;;;;;;5045242;28;20726;-76
2022/06/21 07:14:56;;;;;;;27.30;24.92;;;16.90;99.90;;;;;;5025933;28;20037;-76
2022/06/21 07:17:26;;;;;;;26.13;24.02;;;16.60;99.90;;;;;;5007321;28;20119;-76
2022/06/21 07:19:53;;;;;;;25.92;23.67;;;16.70;99.90;;;;;;5024176;28;20742;-76
2022/06/21 07:22:24;;;;;;;26.13;23.90;;;16.70;99.90;;;;;;5027174;28;20517;-76
2022/06/21 07:25:17;;;;;;;25.00;23.17;;;16.90;99.90;;;;;;4991891;28;20061;-76
2022/06/21 07:27:48;;;;;;;24.90;22.75;;;16.30;99.90;;;;;;5001633;28;20049;-76
2022/06/21 07:30:16;;;;;;;23.88;22.17;;;16.10;99.90;;;;;;5036633;28;20086;-75
2022/06/21 07:33:04;;;;;;;22.63;21.13;;;16.70;99.90;;;;;;5026633;28;20740;-77
2022/06/21 07:35:38;;;;;;;25.92;23.92;;;17.30;99.90;;;;;;5039027;28;20033;-76
2022/06/21 07:38:39;;;;;;;24.50;22.90;;;17.60;99.90;;;;;;5025720;28;20075;-76
2022/06/21 07:41:16;;;;;;;24.30;22.45;;;17.90;99.90;;;;;;5007202;28;20045;-76
2022/06/21 07:43:47;;;;;;;23.25;21.48;;;18.00;99.90;;;;;;5012507;28;20052;-76
2022/06/21 07:46:46;;;;;;;23.45;21.58;;;18.30;99.90;;;;;;5026571;28;20043;-76
2022/06/21 07:49:38;;;;;;;24.17;22.33;;;18.60;99.90;;;;;;5009542;28;20502;-76
2022/06/21 07:52:14;;;;;;;23.58;21.63;;;18.90;99.90;;;;;;5012195;28;20049;-76
2022/06/21 07:55:00;;;;;;;22.05;20.65;;;18.80;99.90;;;;;;5026318;28;20432;-76
2022/06/21 07:57:40;;;;;;;24.13;22.15;;;18.80;99.90;;;;;;5030007;28;20061;-76
2022/06/21 08:00:15;;;;;;;24.00;22.08;;;19.00;99.90;;;;;;5018630;28;20058;-76
2022/06/21 08:08:46;;;;;;;23.02;21.42;;;19.60;99.90;;;;;;5023680;28;20060;-76
2022/06/21 08:11:21;;;;;;;22.92;21.52;;;19.80;99.90;;;;;;5006352;28;20056;-76
2022/06/21 08:13:48;;;;;;;23.65;21.80;;;19.70;99.90;;;;;;5006409;28;20214;-76
2022/06/21 08:16:23;;;;;;;23.48;21.88;;;19.70;99.90;;;;;;5038425;28;20045;-77
2022/06/21 08:19:00;;;;;;;22.35;20.83;;;19.90;99.90;;;;;;5045637;28;20853;-77
2022/06/21 08:21:46;;;;;;;24.20;22.23;;;20.20;99.90;;;;;;5040639;28;20110;-75
2022/06/21 08:24:45;;;;;;;23.45;21.95;;;19.10;99.90;;;;;;5005359;28;20525;-76
2022/06/21 08:27:16;;;;;;;24.40;22.70;;;18.80;99.90;;;;;;5024350;28;20037;-76
2022/06/21 08:29:51;;;;;;;23.60;21.98;;;19.70;99.90;;;;;;5039191;28;20041;-76
2022/06/21 08:32:33;;;;;;;23.65;21.85;;;20.20;99.90;;;;;;5041235;28;20045;-76
2022/06/21 08:35:28;;;;;;;23.05;21.55;;;20.70;99.90;;;;;;5024099;28;20076;-77
2022/06/21 08:38:07;;;;;;;23.90;22.13;;;20.90;99.90;;;;;;4995930;28;20057;-76
2022/06/21 08:41:00;;;;;;;24.23;22.42;;;20.70;99.90;;;;;;5018276;28;20044;-76
2022/06/21 08:44:09;;;;;;;24.17;22.17;;;20.70;99.90;;;;;;5009759;28;20049;-76
2022/06/21 08:47:01;;;;;;;23.80;22.42;;;21.30;99.90;;;;;;5024786;28;20080;-75
2022/06/21 08:50:00;;;;;;;24.60;22.80;;;21.40;99.90;;;;;;5024850;28;20045;-76
2022/06/21 08:52:51;;;;;;;23.95;22.40;;;21.70;99.90;;;;;;5021177;28;20106;-76
2022/06/21 08:55:39;;;;;;;23.85;22.05;;;21.30;99.90;;;;;;5024369;28;20102;-75
2022/06/21 08:58:43;;;;;;;23.52;21.83;;;20.70;99.90;;;;;;5027214;28;20128;-75
2022/06/21 09:01:30;;;;;;;24.45;23.00;;;21.30;99.90;;;;;;5005998;28;20045;-76
2022/06/21 09:04:08;;;;;;;24.58;22.92;;;21.80;99.90;;;;;;5004927;28;20371;-76
2022/06/21 09:07:02;;;;;;;25.10;23.27;;;22.20;99.90;;;;;;5009798;28;20555;-76
2022/06/21 09:09:32;;;;;;;23.75;21.98;;;22.60;99.90;;;;;;5026199;28;20049;-77
2022/06/21 09:12:29;;;;;;;24.30;22.70;;;22.50;99.90;;;;;;5025943;28;20098;-77
2022/06/21 09:15:02;;;;;;;23.90;22.30;;;22.20;99.90;;;;;;5018577;28;20057;-77
2022/06/21 09:17:54;;;;;;;24.25;22.63;;;21.80;99.90;;;;;;5043505;28;20044;-77
2022/06/21 09:20:25;;;;;;;24.73;22.80;;;21.80;99.90;;;;;;5044002;28;20063;-77
2022/06/21 09:23:25;;;;;;;24.95;23.15;;;21.90;99.90;;;;;;5034494;28;20144;-77
2022/06/21 09:26:05;;;;;;;22.58;21.17;;;22.10;99.90;;;;;;5043402;28;20087;-76
2022/06/21 09:28:43;;;;;;;23.63;22.17;;;22.70;99.90;;;;;;5014724;28;20071;-77
2022/06/21 09:31:16;;;;;;;25.63;23.45;;;23.00;99.90;;;;;;5008387;28;20052;-77
2022/06/21 09:33:55;;;;;;;24.40;22.90;;;23.10;99.90;;;;;;4992848;28;20544;-77
2022/06/21 09:36:32;;;;;;;24.10;22.60;;;22.70;99.90;;;;;;5008496;28;20052;-77
2022/06/21 09:39:10;;;;;;;23.88;22.27;;;22.10;99.90;;;;;;5022327;28;20052;-75
2022/06/21 09:41:46;;;;;;;24.40;22.80;;;22.10;99.90;;;;;;5028848;28;20618;-76
2022/06/21 09:44:27;;;;;;;24.05;22.10;;;21.10;99.90;;;;;;5047622;28;20044;-75
2022/06/21 09:47:21;;;;;;;24.40;22.52;;;21.20;99.90;;;;;;5044144;28;20114;-76
2022/06/21 09:50:14;;;;;;;23.13;21.73;;;21.10;99.90;;;;;;5025503;28;20107;-78
2022/06/21 09:53:09;;;;;;;23.42;22.05;;;21.50;99.90;;;;;;5025818;28;20072;-77
2022/06/21 09:56:13;;;;;;;23.95;22.17;;;21.60;99.90;;;;;;5032787;28;20044;-76
2022/06/21 09:59:05;;;;;;;24.33;22.65;;;21.70;99.90;;;;;;5033477;28;20142;-76
2022/06/21 10:01:38;;;;;;;24.50;22.90;;;21.60;99.90;;;;;;5058128;28;20094;-76
2022/06/21 10:04:17;;;;;;;24.33;22.73;;;22.10;99.90;;;;;;5026928;28;20131;-76
2022/06/21 10:07:01;;;;;;;24.88;22.95;;;22.50;99.90;;;;;;5026166;28;20037;-76
2022/06/21 10:09:46;;;;;;;23.57;22.17;;;22.50;99.90;;;;;;5044705;28;20064;-75
2022/06/21 10:12:30;;;;;;;23.75;22.00;;;22.10;99.90;;;;;;5043848;28;20072;-75
2022/06/21 10:15:34;;;;;;;24.13;22.58;;;21.90;99.90;;;;;;5024820;28;20049;-76
2022/06/21 10:18:32;;;;;;;24.90;23.05;;;22.00;99.90;;;;;;5025269;28;20045;-77
2022/06/21 10:21:20;;;;;;;24.15;22.75;;;21.90;99.90;;;;;;5025149;28;20565;-77
2022/06/21 10:23:59;;;;;;;24.63;22.83;;;22.50;99.90;;;;;;5039339;28;20098;-77
2022/06/21 10:27:06;;;;;;;24.70;22.98;;;22.20;99.90;;;;;;5009782;28;20045;-77
2022/06/21 10:29:58;;;;;;;24.23;22.45;;;21.40;99.90;;;;;;5012244;28;20099;-76
2022/06/21 10:32:34;;;;;;;24.65;23.10;;;21.70;99.90;;;;;;5011738;28;20103;-76
2022/06/21 10:35:36;;;;;;;24.38;22.80;;;21.80;99.90;;;;;;5024903;28;20053;-76
2022/06/21 10:38:31;;;;;;;25.63;23.83;;;22.00;99.90;;;;;;5025220;28;20396;-76
2022/06/21 10:41:20;;;;;;;24.77;23.17;;;22.10;99.90;;;;;;5043871;28;20206;-76
2022/06/21 10:44:16;;;;;;;24.55;22.77;;;22.10;99.90;;;;;;5027378;28;20049;-76
2022/06/21 10:46:49;;;;;;;24.65;22.90;;;21.90;99.90;;;;;;5044874;28;20056;-76
2022/06/21 10:49:29;;;;;;;23.50;21.80;;;21.80;99.90;;;;;;5027733;28;20049;-76
2022/06/21 10:51:59;;;;;;;23.50;21.88;;;21.80;99.90;;;;;;5024753;28;20056;-75
2022/06/21 10:54:50;;;;;;;23.25;21.75;;;22.30;99.90;;;;;;5005409;28;20099;-75
2022/06/21 10:57:43;;;;;;;23.67;22.17;;;22.30;99.90;;;;;;5023379;28;20057;-75
2022/06/21 11:03:46;;;;;;;24.35;22.63;;;21.50;99.90;;;;;;5028560;28;20056;-75
2022/06/21 11:06:19;;;;;;;23.50;21.65;;;21.10;99.90;;;;;;5006833;28;20087;-75
2022/06/21 11:08:54;;;;;;;24.45;22.85;;;21.20;99.90;;;;;;5025653;28;20465;-77
2022/06/21 11:11:36;;;;;;;23.05;21.48;;;21.70;99.90;;;;;;5011004;28;20525;-78
2022/06/21 11:14:20;;;;;;;23.65;21.88;;;22.10;99.90;;;;;;5037990;28;20057;-76
2022/06/21 11:17:19;;;;;;;23.58;21.95;;;21.00;99.90;;;;;;5042329;28;20482;-76
2022/06/21 11:20:02;;;;;;;24.25;22.65;;;21.30;99.90;;;;;;5026206;28;20053;-76
2022/06/21 11:22:54;;;;;;;25.27;23.58;;;21.60;99.90;;;;;;5029115;28;20045;-75
2022/06/21 11:25:39;;;;;;;25.23;23.45;;;21.80;99.90;;;;;;5017470;28;20046;-76
2022/06/21 11:28:21;;;;;;;24.17;22.48;;;22.00;99.90;;;;;;5024227;28;20657;-76
2022/06/21 11:30:47;;;;;;;22.63;21.02;;;21.50;99.90;;;;;;5032588;28;20072;-75
2022/06/21 11:33:42;;;;;;;23.20;21.60;;;21.50;99.90;;;;;;5022335;28;20057;-75
2022/06/21 11:36:28;;;;;;;22.47;21.17;;;21.30;99.90;;;;;;5023085;28;20107;-76
2022/06/21 11:39:25;;;;;;;23.23;21.73;;;21.70;99.90;;;;;;5025459;28;20292;-76
2022/06/21 11:42:23;;;;;;;23.00;21.42;;;21.80;99.90;;;;;;5041200;28;20044;-76
2022/06/21 11:45:26;;;;;;;22.65;21.15;;;22.10;99.90;;;;;;5024899;28;20053;-75
2022/06/21 11:48:26;;;;;;;22.42;21.05;;;21.40;99.90;;;;;;5022326;28;20115;-75
2022/06/21 11:51:09;;;;;;;22.40;20.98;;;21.40;99.90;;;;;;5005597;28;20558;-75
2022/06/21 11:53:44;;;;;;;22.60;21.30;;;20.90;99.90;;;;;;5042853;28;20083;-75
2022/06/21 11:56:21;;;;;;;22.40;21.20;;;20.60;99.90;;;;;;5009329;28;20205;-75
2022/06/21 11:59:04;;;;;;;23.05;21.65;;;20.70;99.90;;;;;;5007025;28;20057;-75
2022/06/21 12:01:53;;;;;;;22.88;21.45;;;21.40;99.90;;;;;;5032485;28;20045;-75
2022/06/21 12:04:46;;;;;;;23.15;21.75;;;21.00;99.90;;;;;;5009248;28;20045;-77
2022/06/21 12:07:25;;;;;;;22.40;20.88;;;21.00;99.90;;;;;;5042742;28;20045;-75
2022/06/21 12:10:00;;;;;;;23.30;21.90;;;20.90;99.90;;;;;;5044822;28;20060;-75
2022/06/21 12:12:39;;;;;;;;;;;21.10;99.90;;;;;;5041459;28;20465;-75
2022/06/21 12:15:37;;;;;;;24.27;22.77;;;21.10;99.90;;;;;;5044355;28;19940;-75
2022/06/21 12:18:09;;;;;;;23.38;21.88;;;20.60;99.90;;;;;;5025889;28;20567;-76
2022/06/21 12:20:54;;;;;;;24.60;23.10;;;20.80;99.90;;;;;;5027164;28;20053;-76
2022/06/21 12:23:41;;;;;;;25.67;24.17;;;21.30;99.90;;;;;;5020496;28;20049;-76
2022/06/21 12:26:16;;;;;;;24.42;22.92;;;21.50;99.90;;;;;;5040184;28;20102;-76
2022/06/21 12:28:44;;;;;;;25.05;23.27;;;21.70;99.30;;;;;;5026364;28;20076;-76
2022/06/21 12:31:22;;;;;;;23.17;21.77;;;21.80;99.20;;;;;;5031771;28;20056;-77
2022/06/21 12:33:54;;;;;;;23.90;22.50;;;21.90;99.90;;;;;;5026099;28;20083;-76
2022/06/21 12:36:32;;;;;;;23.70;22.30;;;21.40;99.90;;;;;;5025362;28;20053;-76
2022/06/21 12:39:10;;;;;;;24.15;22.70;;;21.60;99.90;;;;;;5026548;28;20053;-76
2022/06/21 12:41:39;;;;;;;23.67;22.27;;;21.90;98.10;;;;;;5045290;28;20053;-77
2022/06/21 12:44:25;;;;;;;24.42;23.02;;;22.10;99.10;;;;;;5021233;28;20045;-76
2022/06/21 12:47:10;;;;;;;;;;;22.20;98.50;;;;;;5023958;28;20049;-77
2022/06/21 12:50:19;;;;;;;25.85;24.15;;;22.00;97.90;;;;;;5045486;28;19928;-76
2022/06/21 12:53:28;;;;;;;25.65;23.95;;;22.10;99.90;;;;;;5029528;28;20075;-76
2022/06/21 12:56:10;;;;;;;25.95;24.15;;;21.80;98.00;;;;;;5030776;28;20073;-75
2022/06/21 12:58:52;;;;;;;24.90;23.50;;;21.90;98.20;;;;;;5031095;28;20076;-77
2022/06/21 13:01:24;;;;;;;25.00;23.60;;;22.50;98.60;;;;;;5040498;28;20065;-77
2022/06/21 13:04:19;;;;;;;24.73;23.33;;;23.00;98.30;;;;;;5017534;28;20072;-77
2022/06/21 13:06:55;;;;;;;24.88;23.52;;;23.40;98.00;;;;;;5029169;28;20041;-77
2022/06/21 13:10:09;;;;;;;24.88;23.50;;;23.40;96.30;;;;;;5047319;28;20061;-77
2022/06/21 13:13:13;;;;;;;25.33;23.90;;;23.00;95.80;;;;;;4995220;28;20111;-76
2022/06/21 13:16:07;;;;;;;24.67;23.17;;;21.80;96.40;;;;;;5048292;28;20122;-76
2022/06/21 13:18:39;;;;;;;24.20;22.60;;;22.40;94.80;;;;;;5049017;28;20049;-76
2022/06/21 13:21:15;;;;;;;23.88;22.52;;;22.50;95.70;;;;;;5048968;28;20090;-76
2022/06/21 13:24:12;;;;;;;24.73;23.30;;;22.80;94.00;;;;;;5038136;28;20044;-76
2022/06/21 13:27:01;;;;;;;25.95;24.55;;;22.90;94.10;;;;;;5044613;28;20111;-76
2022/06/21 13:29:38;;;;;;;24.40;23.15;;;22.50;94.80;;;;;;5044798;28;20046;-76
2022/06/21 13:32:13;;;;;;;24.90;23.40;;;22.50;95.20;;;;;;5035715;28;20187;-76
2022/06/21 13:34:45;;;;;;;25.13;23.63;;;22.10;95.10;;;;;;4993750;28;20053;-76
2022/06/21 13:37:18;;;;;;;25.88;24.48;;;22.40;95.20;;;;;;5048280;28;20599;-76
2022/06/21 13:40:22;;;;;;;27.20;25.45;;;22.40;94.50;;;;;;5039538;28;20125;-77
2022/06/21 13:43:07;;;;;;;27.05;25.45;;;22.60;96.40;;;;;;5014547;28;20045;-76
2022/06/21 13:46:09;;;;;;;25.60;24.20;;;22.80;96.20;;;;;;5048178;28;20668;-77